CheckWX is a tool to help pilots better visualize weather data.  It is not intended as a substitute for an official pre-flight weather briefing.

10:56:25 UTC

LJLJ METAR
Ljubljana Jože Pučnik Airport
Ljubljana, Slovenia
Current

26 mins ago

LJLJ 121030Z VRB01KT 9999 FEW028 OVC040 M02/M03 Q1007 NOSIG
Observed
Dec-12 @ 10:30 UTC
Wind
  • Variable at 1 KTS
Visibility
10,000+ meters
Flight Rules
VFR
Cloud Levels
  • Few at 2,800' AGL
  • Overcast at 4,000' AGL
Temperature
-2°C / 28°F
Dewpoint
-3°C / 27°F
Humidity
93%
Altimeter
29.73" Hg
Pressure
1006.92 hPa
Previous

56 mins ago

LJLJ 121000Z 08002KT 9999 FEW026 OVC045 M02/M04 Q1007 NOSIG
Observed
Dec-12 @ 10:00 UTC
Wind
  • 080° at 2 KTS
Visibility
10,000+ meters
Flight Rules
VFR
Cloud Levels
  • Few at 2,600' AGL
  • Overcast at 4,500' AGL
Temperature
-2°C / 28°F
Dewpoint
-4°C / 25°F
Humidity
86%
Altimeter
29.73" Hg
Pressure
1006.92 hPa
Previous

1 hour ago

LJLJ 120930Z 31001KT 9999 FEW026 OVC045 M02/M04 Q1008 NOSIG
Observed
Dec-12 @ 09:30 UTC
Wind
  • 310° at 1 KTS
Visibility
10,000+ meters
Flight Rules
VFR
Cloud Levels
  • Few at 2,600' AGL
  • Overcast at 4,500' AGL
Temperature
-2°C / 28°F
Dewpoint
-4°C / 25°F
Humidity
86%
Altimeter
29.76" Hg
Pressure
1007.92 hPa